Flight Track Log - Related Links

Times and Time Zones

All times are in EDT time to prevent confusion due to time zone crossing. See the UAL4533 flight status page for this flight to view local times or setup timezone preferences in your user account.

Time Position Orientation Groundspeed Altitude Reporting Facility
EDT Latitude Longitude Course Direction KTS MPH feet Rate Location/Type
Mon 06:48:03 AM 40.6667 -74.1833 327° Northwest 167 192 1,400  Level New York TRACON
Mon 06:49:03 AM 40.6333 -74.2167 217° Southwest 207 238 3,800 2,550 Climbing New York TRACON
Mon 06:50:00 AM 40.9252 -74.3397 331° Northwest  Level FlightAware Approximate
Mon 06:50:03 AM 40.6833 -74.2667 323° Northwest 222 255 6,500  Level New York TRACON
Mon 06:51:00 AM 41.0056 -74.4000 331° Northwest  Level FlightAware Approximate
Mon 06:51:03 AM 40.7333 -74.3000 333° Northwest 233 268 9,100  Level New York TRACON
Mon 06:52:00 AM 41.0845 -74.4635 327° Northwest  Level FlightAware Approximate
Mon 06:53:00 AM 41.1617 -74.5310 327° Northwest  Level FlightAware Approximate
Mon 06:53:27 AM 40.8908 -74.4164 331° Northwest 261 300 12,100  Level New York Center
Mon 06:54:29 AM 40.9667 -74.4533 340° North 276 318 14,100 1,805 Climbing New York Center
Mon 06:55:30 AM 41.0406 -74.4906 339° North 281 323 15,800 1,339 Climbing New York Center
Mon 06:56:30 AM 41.1144 -74.5275 339° North 302 348 16,800 1,322 Climbing New York Center
Mon 06:57:28 AM 41.2025 -74.5711 340° North 302 348 18,400 1,765 Climbing New York Center
Mon 06:58:29 AM 41.2669 -74.6381 322° Northwest 296 341 20,300 1,770 Climbing New York Center
Mon 06:59:30 AM 41.3181 -74.7294 307° West 296 341 22,000 850 Climbing New York Center
Mon 07:00:29 AM 41.3772 -74.8269 309° West 308 354 22,000  Level New York Center
Mon 07:01:30 AM 41.4383 -74.9247 310° West 336 387 22,000  Level New York Center
Mon 07:02:27 AM 41.5014 -75.0311 308° West 350 403 22,000  Level New York Center
Mon 07:03:28 AM 41.5642 -75.1378 308° West 362 417 22,000  Level New York Center
Mon 07:04:30 AM 41.6050 -75.2653 293° West 362 417 22,000  Level New York Center
Mon 07:05:28 AM 41.6419 -75.3869 292° West 362 417 22,000  Level New York Center
Mon 07:06:30 AM 41.6764 -75.5172 290° West 362 417 22,000  Level New York Center
Mon 07:07:29 AM 41.7131 -75.6419 292° West 362 417 22,000  Level New York Center
Mon 07:08:29 AM 41.7475 -75.7669 290° West 362 417 22,000  Level New York Center
Mon 07:09:28 AM 41.7839 -75.8919 291° West 362 417 22,000  Level New York Center
Mon 07:10:29 AM 41.8178 -76.0197 290° West 362 417 22,000  Level New York Center
Mon 07:11:30 AM 41.8539 -76.1453 291° West 362 417 22,000  Level New York Center
Mon 07:12:29 AM 41.8894 -76.2733 290° West 362 417 22,000  Level New York Center
Mon 07:13:29 AM 41.9253 -76.4019 291° West 362 417 22,000  Level New York Center
Mon 07:14:30 AM 41.9589 -76.5275 290° West 362 417 22,000  Level New York Center
Mon 07:15:28 AM 41.9942 -76.6561 290° West 362 417 22,000  Level New York Center
Mon 07:16:30 AM 42.0239 -76.7675 290° West 362 417 22,000  Level New York Center
Mon 07:17:34 AM 42.0686 -76.9242 291° West 364 419 22,000  Level Cleveland Center
Mon 07:18:34 AM 42.1039 -77.0511 291° West 364 419 22,000  Level Cleveland Center
Mon 07:19:34 AM 42.1431 -77.1750 293° West 364 419 22,000  Level Cleveland Center
Mon 07:20:34 AM 42.1861 -77.2986 295° West 369 425 22,000 -350 Level Cleveland Center
Mon 07:21:34 AM 42.2250 -77.4200 293° West 369 425 21,300 -1,500 Descending Cleveland Center
Mon 07:22:34 AM 42.2636 -77.5361 294° West 356 410 19,000 -2,350 Descending Cleveland Center
Mon 07:23:34 AM 42.2978 -77.6467 293° West 343 395 16,600 -2,500 Descending Cleveland Center
Mon 07:24:34 AM 42.3339 -77.7547 294° West 331 381 14,000 -2,600 Descending Cleveland Center
Mon 07:25:34 AM 42.3697 -77.8656 294° West 325 374 11,400 -1,550 Descending Cleveland Center
Mon 07:26:34 AM 42.4056 -77.9708 295° West 320 368 10,900 -250 Descending Cleveland Center
Mon 07:27:34 AM 42.4372 -78.0792 292° West 315 362 10,900 -450 Level Cleveland Center
Mon 07:28:34 AM 42.4664 -78.1708 293° West 294 338 10,000 -1,000 Descending Cleveland Center
Mon 07:29:34 AM 42.4928 -78.2489 295° West 261 300 8,900 -1,200 Descending Cleveland Center
Mon 07:30:34 AM 42.5275 -78.3181 304° West 233 268 7,600 -1,300 Descending Cleveland Center
Mon 07:31:34 AM 42.5908 -78.3467 342° North 218 251 6,300 -800 Descending Cleveland Center
Mon 07:32:34 AM 42.6558 -78.3756 342° North 225 259 6,000 -151 Descending Cleveland Center
Mon 07:33:33 AM 42.7169 -78.4072 339° North 247 284 6,000 -101 Level Cleveland Center
Mon 07:34:33 AM 42.7906 -78.4414 341° North 254 292 5,800 -793 Descending Cleveland Center
Mon 07:35:34 AM 42.8556 -78.4703 342° North 249 287 4,400 -1,108 Descending Cleveland Center
Mon 07:37:10 AM 42.9500 -78.5167 340° North 226 260 2,900 -731 Descending Buffalo TRACON
Mon 07:38:10 AM 42.9833 -78.5667 312° West 187 215 2,500 -400 Descending Buffalo TRACON

Login

Don't have an account? Register now (free) for customized features, flight alerts, and more!